Flight Track Log - Related Links

Times and Time Zones

All times are in EDT time to prevent confusion due to time zone crossing. See the DAL3682 flight status page for this flight to view local times or setup timezone preferences in your user account.

Time Position Orientation Groundspeed Altitude Reporting Facility
EDT Latitude Longitude Course Direction KTS MPH feet Rate Location/Type
Sun 11:43:45 AM 39.0500 -84.6833 293° West 164 189 1,400  Level Cincinnati TRACON
Sun 11:44:21 AM 39.0500 -84.7167 270° West 159 183 2,500 2,000 Climbing Cincinnati TRACON
Sun 11:45:27 AM 39.0500 -84.8167 270° West 256 295 4,800 2,300 Climbing Cincinnati TRACON
Sun 11:46:00 AM 38.9366 -84.8151 309° West  Level FlightAware Approximate
Sun 11:46:21 AM 39.0500 -84.8833 270° West 250 288 7,100  Level Cincinnati TRACON
Sun 11:46:43 AM 39.0464 -84.9231 263° West 254 292 7,900 2,286 Climbing Indianapolis Center
Sun 11:47:00 AM 39.0009 -84.9181 311° West  Level FlightAware Approximate
Sun 11:47:45 AM 39.0686 -85.0200 286° West 281 323 10,300  Level Indianapolis Center
Sun 11:48:00 AM 39.0672 -85.0189 288° West  Level FlightAware Approximate
Sun 11:48:46 AM 39.1067 -85.1231 295° West 310 357 11,800  Level Indianapolis Center
Sun 11:49:00 AM 39.1132 -85.1395 293° West  Level FlightAware Approximate
Sun 11:49:48 AM 39.1478 -85.2322 296° West 332 382 13,600  Level Indianapolis Center
Sun 11:50:49 AM 39.1908 -85.3447 296° West 344 396 15,400 1,805 Climbing Indianapolis Center
Sun 11:51:51 AM 39.2828 -85.4383 322° Northwest 366 421 17,300 1,610 Climbing Indianapolis Center
Sun 11:52:52 AM 39.3750 -85.5019 332° Northwest 374 430 18,700 1,268 Climbing Indianapolis Center
Sun 11:53:54 AM 39.4686 -85.5672 332° Northwest 380 437 19,900 1,161 Climbing Indianapolis Center
Sun 11:54:56 AM 39.5653 -85.6350 332° Northwest 390 449 21,100 1,171 Climbing Indianapolis Center
Sun 11:55:57 AM 39.6611 -85.7022 332° Northwest 391 450 22,300 1,073 Climbing Indianapolis Center
Sun 11:56:59 AM 39.7567 -85.7706 331° Northwest 392 451 23,300 732 Climbing Indianapolis Center
Sun 11:58:00 AM 39.8550 -85.8392 332° Northwest 399 459 23,800 341 Climbing Indianapolis Center
Sun 11:59:02 AM 39.9564 -85.9125 331° Northwest 414 476 24,000 244 Climbing Indianapolis Center
Sun 12:00:03 PM 40.0817 -86.0000 332° Northwest 437 503 24,300 537 Climbing Indianapolis Center
Sun 12:01:05 PM 40.1883 -86.0767 331° Northwest 438 504 25,100 677 Climbing Indianapolis Center
Sun 12:02:07 PM 40.2944 -86.1528 331° Northwest 435 501 25,700 585 Climbing Indianapolis Center
Sun 12:03:08 PM 40.4019 -86.2297 331° Northwest 438 504 26,300 537 Climbing Indianapolis Center
Sun 12:04:10 PM 40.5100 -86.3094 331° Northwest 442 509 26,800 488 Climbing Indianapolis Center
Sun 12:05:11 PM 40.6183 -86.3856 332° Northwest 440 506 27,300 488 Climbing Indianapolis Center
Sun 12:06:13 PM 40.7258 -86.4656 331° Northwest 441 507 27,800 537 Climbing Indianapolis Center
Sun 12:07:14 PM 40.8522 -86.5561 332° Northwest 442 509 28,400 537 Climbing Indianapolis Center
Sun 12:08:16 PM 40.9600 -86.6358 331° Northwest 441 507 28,900 484 Climbing Indianapolis Center
Sun 12:09:18 PM 41.0678 -86.7158 331° Northwest 442 509 29,400 488 Climbing Indianapolis Center
Sun 12:10:19 PM 41.1764 -86.7939 332° Northwest 441 507 29,900 275 Climbing Indianapolis Center
Sun 12:11:29 PM 41.2956 -86.8850 330° Northwest 440 506 30,000 45 Climbing Chicago Center
Sun 12:12:31 PM 41.4042 -86.9653 331° Northwest 447 514 30,000  Level Chicago Center
Sun 12:13:33 PM 41.5072 -87.0428 331° Northwest 437 503 30,000  Level Chicago Center
Sun 12:14:35 PM 41.6286 -87.1336 331° Northwest 425 489 30,000  Level Chicago Center
Sun 12:15:36 PM 41.7264 -87.2078 330° Northwest 414 476 30,000  Level Chicago Center
Sun 12:16:38 PM 41.8256 -87.2831 331° Northwest 413 475 30,000  Level Chicago Center
Sun 12:17:40 PM 41.9247 -87.3581 331° Northwest 412 474 30,000  Level Chicago Center
Sun 12:18:42 PM 42.0231 -87.4319 331° Northwest 411 473 30,000  Level Chicago Center
Sun 12:19:43 PM 42.1442 -87.5244 330° Northwest 418 481 30,000  Level Chicago Center
Sun 12:20:45 PM 42.2450 -87.6033 330° Northwest 422 486 30,000  Level Chicago Center
Sun 12:21:47 PM 42.3469 -87.6808 331° Northwest 422 486 30,000  Level Chicago Center
Sun 12:22:49 PM 42.4481 -87.7600 330° Northwest 422 486 30,000  Level Chicago Center
Sun 12:23:51 PM 42.5375 -87.8639 319° Northwest 424 488 30,000  Level Chicago Center
Sun 12:24:53 PM 42.6347 -87.9944 315° West 420 483 30,000  Level Chicago Center
Sun 12:25:55 PM 42.7197 -88.1061 316° Northwest 422 486 30,000  Level Chicago Center
Sun 12:26:57 PM 42.8050 -88.2164 317° Northwest 422 486 30,000  Level Chicago Center
Sun 12:27:58 PM 42.8892 -88.3303 315° West 424 488 30,000  Level Chicago Center
Sun 12:29:00 PM 42.9722 -88.4428 315° West 419 482 30,000  Level Chicago Center
Sun 12:30:02 PM 43.0550 -88.5528 316° Northwest 414 476 30,000  Level Chicago Center
Sun 12:31:04 PM 43.1386 -88.6653 316° Northwest 417 480 30,000  Level Chicago Center
Sun 12:32:06 PM 43.2361 -88.7956 316° Northwest 416 479 30,000  Level Chicago Center
Sun 12:33:08 PM 43.3183 -88.9069 315° West 414 476 30,000  Level Chicago Center
Sun 12:34:10 PM 43.4003 -89.0192 315° West 412 474 30,000  Level Chicago Center
Sun 12:35:12 PM 43.4814 -89.1314 315° West 412 474 30,000  Level Chicago Center
Sun 12:36:13 PM 43.5628 -89.2439 315° West 413 475 30,000  Level Chicago Center
Sun 12:37:05 PM 43.6311 -89.3381 315° West 414 476 30,000  Level Minneapolis Center
Sun 12:38:07 PM 43.6981 -89.4303 315° West 411 473 30,000  Level Minneapolis Center
Sun 12:39:09 PM 43.8044 -89.5786 315° West 407 468 30,000  Level Minneapolis Center
Sun 12:40:11 PM 43.8839 -89.6911 314° West 407 468 30,000  Level Minneapolis Center
Sun 12:41:12 PM 43.9636 -89.8014 315° West 405 466 30,000  Level Minneapolis Center
Sun 12:42:14 PM 44.0250 -89.9325 303° West 405 466 30,000  Level Minneapolis Center
Sun 12:43:16 PM 44.0853 -90.0675 302° West 408 470 30,000  Level Minneapolis Center
Sun 12:44:18 PM 44.1458 -90.2011 302° West 409 471 30,000  Level Minneapolis Center
Sun 12:45:19 PM 44.2081 -90.3394 302° West 405 466 30,000  Level Minneapolis Center
Sun 12:46:21 PM 44.2756 -90.4903 302° West 406 467 30,000  Level Minneapolis Center
Sun 12:47:23 PM 44.3364 -90.6275 302° West 414 476 30,000  Level Minneapolis Center
Sun 12:48:25 PM 44.3978 -90.7653 302° West 417 480 30,000  Level Minneapolis Center
Sun 12:49:26 PM 44.4608 -90.9097 301° West 422 486 30,000 -439 Level Minneapolis Center
Sun 12:50:28 PM 44.5183 -91.0403 302° West 418 481 29,100 -1,403 Descending Minneapolis Center
Sun 12:51:30 PM 44.5775 -91.1739 302° West 409 471 27,100 -2,081 Descending Minneapolis Center
Sun 12:52:32 PM 44.6461 -91.3350 301° West 403 464 24,800 -2,032 Descending Minneapolis Center
Sun 12:53:34 PM 44.7039 -91.4683 301° West 403 464 22,900 -1,854 Descending Minneapolis Center
Sun 12:54:35 PM 44.7586 -91.5978 301° West 393 452 21,000 -1,854 Descending Minneapolis Center
Sun 12:55:37 PM 44.8111 -91.7197 301° West 373 429 19,100 -1,887 Descending Minneapolis Center
Sun 12:56:39 PM 44.8636 -91.8447 301° West 373 429 17,100 -1,839 Descending Minneapolis Center
Sun 12:57:41 PM 44.9156 -91.9667 301° West 365 420 15,300 -1,935 Descending Minneapolis Center
Sun 12:58:43 PM 44.9728 -92.1064 300° West 348 400 13,100 -1,935 Descending Minneapolis Center
Sun 12:59:45 PM 45.0208 -92.2178 301° West 337 388 11,300 -1,016 Descending Minneapolis Center
Sun 01:00:47 PM 45.0408 -92.3372 283° West 333 383 11,000 -146 Descending Minneapolis Center
Sun 01:01:48 PM 45.0211 -92.4650 258° West 334 384 11,000  Level Minneapolis Center
Sun 01:02:50 PM 45.0011 -92.5928 258° West 335 386 11,000  Level Minneapolis Center
Sun 01:03:52 PM 44.9808 -92.7206 257° West 336 387 11,000 -48 Level Minneapolis Center
Sun 01:04:54 PM 44.9561 -92.8733 257° West 334 384 10,900 -387 Descending Minneapolis Center
Sun 01:05:56 PM 44.9369 -92.9928 257° West 315 362 10,200 -1,016 Descending Minneapolis Center
Sun 01:06:58 PM 44.9372 -93.0875 270° West 261 300 8,800 -1,210 Descending Minneapolis Center
Sun 01:08:00 PM 44.9764 -93.1669 305° West 248 285 7,700 -1,306 Descending Minneapolis Center
Sun 01:09:02 PM 45.0156 -93.2431 306° West 243 280 6,100 -1,742 Descending Minneapolis Center
Sun 01:10:04 PM 45.0406 -93.3419 290° West 234 269 4,100 -1,306 Descending Minneapolis Center
Sun 01:11:06 PM 44.9842 -93.3569 191° South 209 241 3,400 -677 Descending Minneapolis Center

Login

Don't have an account? Register now (free) for customized features, flight alerts, and more!